createdAt,value
2023-05-14T00:00:37.308Z,100754.39
2023-05-14T00:06:00.686Z,100754.27
2023-05-14T00:11:04.204Z,100758.14
2023-05-14T00:16:07.710Z,100759.96
2023-05-14T00:21:11.336Z,100760.69
2023-05-14T00:26:14.855Z,100764.04
2023-05-14T00:31:18.428Z,100765.78
2023-05-14T00:36:21.995Z,100768.05
2023-05-14T00:41:25.514Z,100762.63
2023-05-14T00:46:29.055Z,100759.50
2023-05-14T00:51:32.638Z,100753.67
2023-05-14T00:56:36.359Z,100751.98
2023-05-14T01:01:40.292Z,100744.88
2023-05-14T01:06:52.809Z,100742.05
2023-05-14T01:12:11.581Z,100742.88
2023-05-14T01:17:20.273Z,100743.14
2023-05-14T01:22:23.630Z,100740.17
2023-05-14T01:27:47.219Z,100736.08
2023-05-14T01:32:54.979Z,100733.93
2023-05-14T01:38:01.451Z,100733.58
2023-05-14T01:43:05.588Z,100729.80
2023-05-14T01:48:09.019Z,100732.73
2023-05-14T01:53:12.776Z,100727.14
2023-05-14T01:58:16.294Z,100730.73
2023-05-14T02:03:19.708Z,100723.48
2023-05-14T02:08:23.220Z,100725.77
2023-05-14T02:13:27.247Z,100724.76
2023-05-14T02:18:30.792Z,100725.96
2023-05-14T02:23:41.477Z,100724.59
2023-05-14T02:28:46.201Z,100724.60
2023-05-14T02:33:49.709Z,100720.58
2023-05-14T02:38:53.328Z,100721.70
2023-05-14T02:43:56.947Z,100723.13
2023-05-14T02:49:00.469Z,100720.71
2023-05-14T02:54:04.183Z,100720.09
2023-05-14T02:59:07.700Z,100718.48
2023-05-14T03:04:11.728Z,100716.61
2023-05-14T03:09:15.243Z,100712.48
2023-05-14T03:14:18.761Z,100710.06
2023-05-14T03:19:22.276Z,100706.69
2023-05-14T03:24:25.860Z,100707.71
2023-05-14T03:29:29.814Z,100703.49
2023-05-14T03:34:33.434Z,100702.84
2023-05-14T03:39:37.261Z,100696.88
2023-05-14T03:44:40.989Z,100698.41
2023-05-14T03:49:44.288Z,100698.71
2023-05-14T03:54:47.804Z,100696.24
2023-05-14T03:59:51.366Z,100700.77
2023-05-14T04:04:54.877Z,100700.14
2023-05-14T04:09:58.453Z,100692.13
2023-05-14T04:15:01.869Z,100692.58
2023-05-14T04:20:06.204Z,100697.46
2023-05-14T04:25:09.619Z,100692.07
2023-05-14T04:30:13.773Z,100695.76
2023-05-14T04:35:17.061Z,100695.16
2023-05-14T04:40:20.781Z,100693.51
2023-05-14T04:45:24.387Z,100685.21
2023-05-14T04:50:29.334Z,100681.74
2023-05-14T04:55:32.753Z,100676.52
2023-05-14T05:00:36.260Z,100675.90
2023-05-14T05:05:39.685Z,100675.06
2023-05-14T05:10:43.208Z,100674.33
2023-05-14T05:15:46.642Z,100672.58
2023-05-14T05:20:50.266Z,100675.78
2023-05-14T05:25:53.849Z,100676.68
2023-05-14T05:30:57.396Z,100673.30
2023-05-14T05:36:01.189Z,100672.73
2023-05-14T05:41:04.704Z,100678.80
2023-05-14T05:46:08.385Z,100672.54
2023-05-14T05:51:12.241Z,100674.05
2023-05-14T05:56:15.656Z,100675.86
2023-05-14T06:01:19.174Z,100676.73
2023-05-14T06:06:22.588Z,100674.58
2023-05-14T06:11:26.923Z,100672.61
2023-05-14T06:16:30.606Z,100672.25
2023-05-14T06:21:34.568Z,100672.38
2023-05-14T06:26:38.181Z,100672.31
2023-05-14T06:31:41.631Z,100672.32
2023-05-14T06:36:45.420Z,100673.36
2023-05-14T06:41:48.829Z,100673.52
2023-05-14T06:46:52.372Z,100669.16
2023-05-14T06:51:55.861Z,100672.95
2023-05-14T06:56:59.480Z,100670.98
2023-05-14T07:02:03.513Z,100669.81
2023-05-14T07:07:07.136Z,100668.87
2023-05-14T07:12:10.498Z,100668.70
2023-05-14T07:17:14.215Z,100661.03
2023-05-14T07:22:17.781Z,100660.70
2023-05-14T07:27:21.398Z,100660.96
2023-05-14T07:32:25.658Z,100657.96
2023-05-14T07:37:29.144Z,100655.15
2023-05-14T07:42:36.370Z,100655.13
2023-05-14T07:47:41.322Z,100650.36
2023-05-14T07:52:45.628Z,100647.88
2023-05-14T07:57:49.245Z,100644.09
2023-05-14T08:02:52.872Z,100637.82
2023-05-14T08:07:56.590Z,100636.38
2023-05-14T08:12:59.801Z,100640.90
2023-05-14T08:18:04.102Z,100639.91
2023-05-14T08:23:07.749Z,100636.41
2023-05-14T08:28:11.263Z,100632.33
2023-05-14T08:33:14.777Z,100631.44
2023-05-14T08:38:18.195Z,100627.45
2023-05-14T08:43:26.240Z,100621.30
2023-05-14T08:48:33.681Z,100616.85
2023-05-14T08:53:38.671Z,100621.55
2023-05-14T08:58:42.188Z,100612.73
2023-05-14T09:03:47.142Z,100613.16
2023-05-14T09:08:50.756Z,100608.70
2023-05-14T09:13:54.172Z,100599.39
2023-05-14T09:18:58.561Z,100597.02
2023-05-14T09:24:02.013Z,100596.93
2023-05-14T09:29:05.425Z,100596.51
2023-05-14T09:34:08.940Z,100596.50
2023-05-14T09:39:12.361Z,100589.94
2023-05-14T09:44:15.975Z,100582.60
2023-05-14T09:49:20.308Z,100572.89
2023-05-14T09:54:25.612Z,100568.27
2023-05-14T09:59:29.079Z,100562.98
2023-05-14T10:04:34.483Z,100566.84
2023-05-14T10:09:41.948Z,100568.41
2023-05-14T10:14:53.915Z,100559.93
2023-05-14T10:20:00.218Z,100549.74
2023-05-14T10:25:04.615Z,100545.49
2023-05-14T10:30:13.034Z,100541.33
2023-05-14T10:35:25.635Z,100541.39
2023-05-14T10:40:28.946Z,100531.58
2023-05-14T10:45:34.613Z,100523.89
2023-05-14T10:50:38.846Z,100523.05
2023-05-14T10:55:43.489Z,100519.36
2023-05-14T11:00:50.197Z,100505.27
2023-05-14T11:05:55.954Z,100506.80
2023-05-14T11:11:00.589Z,100499.66
2023-05-14T11:21:13.496Z,100492.86
2023-05-14T11:26:18.815Z,100485.19
2023-05-14T11:31:24.517Z,100471.50
2023-05-14T11:36:27.794Z,100462.48
2023-05-14T11:41:31.736Z,100463.13
2023-05-14T11:46:35.353Z,100457.63
2023-05-14T11:51:38.958Z,100467.73
2023-05-14T11:56:42.471Z,100473.73
2023-05-14T12:01:48.509Z,100456.96
2023-05-14T12:06:53.492Z,100443.08
2023-05-14T12:11:57.008Z,100448.55
2023-05-14T12:17:02.265Z,100437.03
2023-05-14T12:22:06.238Z,100432.04
2023-05-14T12:27:11.452Z,100419.65
2023-05-14T12:32:15.265Z,100415.93
2023-05-14T12:37:18.888Z,100409.22
2023-05-14T12:42:22.610Z,100408.02
2023-05-14T12:47:26.233Z,100397.30
2023-05-14T12:57:36.846Z,100404.17
2023-05-14T13:02:42.986Z,100401.25
2023-05-14T13:07:47.148Z,100391.61
2023-05-14T13:12:51.075Z,100385.61
2023-05-14T13:17:54.545Z,100371.74
2023-05-14T13:22:58.515Z,100366.05
2023-05-14T13:28:02.212Z,100349.56
2023-05-14T13:33:06.204Z,100345.10
2023-05-14T13:38:09.681Z,100348.39
2023-05-14T13:43:13.190Z,100341.23
2023-05-14T13:48:16.671Z,100341.56
2023-05-14T13:53:21.870Z,100336.00
2023-05-14T13:58:26.194Z,100333.30
2023-05-14T14:03:29.811Z,100333.30
2023-05-14T14:08:33.139Z,100325.34
2023-05-14T14:13:37.564Z,100327.50
2023-05-14T14:18:41.716Z,100316.80
2023-05-14T14:23:48.484Z,100310.89
2023-05-14T14:28:51.999Z,100305.13
2023-05-14T14:33:55.417Z,100306.48
2023-05-14T14:38:58.930Z,100297.99
2023-05-14T14:44:03.162Z,100295.77
2023-05-14T14:49:06.484Z,100286.02
2023-05-14T14:54:09.884Z,100289.31
2023-05-14T14:59:13.299Z,100293.81
2023-05-14T15:04:16.710Z,100292.23
2023-05-14T15:09:20.126Z,100287.83
2023-05-14T15:14:23.649Z,100272.67
2023-05-14T15:19:27.158Z,100266.67
2023-05-14T15:24:30.675Z,100253.41
2023-05-14T15:29:34.193Z,100247.77
2023-05-14T15:34:37.704Z,100246.79
2023-05-14T15:39:41.117Z,100244.56
2023-05-14T15:44:44.755Z,100246.92
2023-05-14T15:49:48.150Z,100247.77
2023-05-14T15:54:52.378Z,100237.77
2023-05-14T15:59:57.125Z,100228.15
2023-05-14T16:05:00.752Z,100220.36
2023-05-14T16:10:05.120Z,100216.27
2023-05-14T16:15:09.458Z,100203.28
2023-05-14T16:20:13.130Z,100200.16
2023-05-14T16:25:18.904Z,100195.94
2023-05-14T16:30:22.534Z,100187.16
2023-05-14T16:35:26.135Z,100183.10
2023-05-14T16:40:29.683Z,100176.88
2023-05-14T16:45:35.105Z,100172.91
2023-05-14T16:50:38.518Z,100166.32
2023-05-14T16:55:41.934Z,100160.38
2023-05-14T17:00:45.441Z,100158.89
2023-05-14T17:05:48.954Z,100155.83
2023-05-14T17:10:52.369Z,100152.91
2023-05-14T17:15:56.240Z,100156.97
2023-05-14T17:21:00.224Z,100161.83
2023-05-14T17:26:03.866Z,100157.33
2023-05-14T17:31:07.538Z,100155.41
2023-05-14T17:36:11.377Z,100155.48
2023-05-14T17:41:14.691Z,100154.12
2023-05-14T17:46:18.633Z,100148.98
2023-05-14T17:51:22.339Z,100142.63
2023-05-14T17:56:26.269Z,100139.84
2023-05-14T18:01:29.860Z,100131.27
2023-05-14T18:06:33.409Z,100136.52
2023-05-14T18:11:37.134Z,100141.93
2023-05-14T18:16:40.908Z,100138.90
2023-05-14T18:21:46.884Z,100139.95
2023-05-14T18:26:50.768Z,100137.95
2023-05-14T18:31:54.283Z,100137.50
2023-05-14T18:36:58.654Z,100133.49
2023-05-14T18:42:02.026Z,100136.17
2023-05-14T18:47:06.251Z,100133.92
2023-05-14T18:52:09.660Z,100137.83
2023-05-14T18:57:14.100Z,100141.10
2023-05-14T19:02:17.503Z,100138.15
2023-05-14T19:07:22.089Z,100137.45
2023-05-14T19:12:25.681Z,100137.90
2023-05-14T19:17:29.445Z,100137.20
2023-05-14T19:22:32.914Z,100129.02
2023-05-14T19:27:38.159Z,100128.40
2023-05-14T19:32:41.638Z,100120.71
2023-05-14T19:37:46.431Z,100122.89
2023-05-14T19:42:50.460Z,100121.23
2023-05-14T19:47:54.204Z,100120.08
2023-05-14T19:52:57.989Z,100116.89
2023-05-14T19:58:01.715Z,100112.87
2023-05-14T20:03:06.081Z,100111.16
2023-05-14T20:08:09.772Z,100110.40
2023-05-14T20:13:13.178Z,100102.96
2023-05-14T20:18:18.243Z,100103.75
2023-05-14T20:23:21.598Z,100101.30
2023-05-14T20:28:25.262Z,100102.52
2023-05-14T20:33:29.395Z,100096.61
2023-05-14T20:38:35.212Z,100098.06
2023-05-14T20:43:40.215Z,100096.75
2023-05-14T20:48:43.898Z,100095.38
2023-05-14T20:53:49.073Z,100096.96
2023-05-14T20:58:52.714Z,100090.89
2023-05-14T21:03:56.323Z,100086.63
2023-05-14T21:09:00.052Z,100078.61
2023-05-14T21:14:03.981Z,100071.66
2023-05-14T21:19:07.443Z,100072.73
2023-05-14T21:24:11.008Z,100074.96
2023-05-14T21:29:14.516Z,100070.54
2023-05-14T21:34:18.030Z,100062.37
2023-05-14T21:39:21.444Z,100060.52
2023-05-14T21:44:24.862Z,100055.11
2023-05-14T21:49:28.274Z,100054.30
2023-05-14T21:54:31.888Z,100052.46
2023-05-14T21:59:35.707Z,100045.44
2023-05-14T22:04:39.224Z,100038.73
2023-05-14T22:09:42.745Z,100033.89
2023-05-14T22:14:52.214Z,100031.41
2023-05-14T22:19:55.727Z,100033.25
2023-05-14T22:24:59.123Z,100030.10
2023-05-14T22:30:02.749Z,100022.88
2023-05-14T22:35:06.667Z,100018.13
2023-05-14T22:40:10.589Z,100012.98
2023-05-14T22:45:14.311Z,100008.47
2023-05-14T22:50:17.933Z,100005.88
2023-05-14T22:55:23.070Z,100002.39
2023-05-14T23:00:26.602Z,99994.96
2023-05-14T23:05:30.325Z,99989.21
2023-05-14T23:10:35.769Z,99979.23
2023-05-14T23:15:39.194Z,99976.54
2023-05-14T23:20:42.722Z,99971.98
2023-05-14T23:25:46.226Z,99962.63
2023-05-14T23:30:49.951Z,99953.65
2023-05-14T23:35:53.672Z,99946.54
2023-05-14T23:40:57.081Z,99938.15
2023-05-14T23:46:01.217Z,99928.59
2023-05-14T23:51:04.822Z,99919.42
2023-05-14T23:56:09.260Z,99909.77
